• Join FlightAware (Why Join?)
  • Login
  • US Flag 
11:26PM EST


 

Airport Tracker/Info


-or-


 

Live Flight TrackerFlight Track Log ✈ SWA1535 ✈ 23-Apr-2013 ✈ KSTL - KOMA

Flight Track Log - Related Links

Times and Time Zones

All times are in EDT time to prevent confusion due to time zone crossing. See the SWA1535 flight status page for this flight to view local times or setup timezone preferences in your user account.

Time Position Orientation Groundspeed Altitude Reporting Facility
EDT Latitude Longitude Course Direction KTS MPH feet Rate Location/Type
07:53PM 38.7567 -90.3403 71° East 145 167 2,300  Level FAA TRACON SMA TRACON (SMA)
07:53PM 38.7650 -90.3561 304° West 167 192 2,800 2,049 Climbing FAA TRACON SMA TRACON (SMA)
07:54PM 38.7761 -90.3783 303° West 190 219 3,700 1,902 Climbing FAA TRACON SMA TRACON (SMA)
07:54PM 38.7861 -90.3983 303° West 209 241 4,100 1,500 Climbing FAA TRACON SMA TRACON (SMA)
07:54PM 38.7969 -90.4206 302° West 233 268 4,700 2,615 Climbing FAA TRACON SMA TRACON (SMA)
07:55PM 38.8119 -90.4489 304° West 249 287 5,800 3,077 Climbing FAA TRACON SMA TRACON (SMA)
07:55PM 38.8244 -90.4736 303° West 262 302 6,700 3,300 Climbing FAA TRACON SMA TRACON (SMA)
07:55PM 38.8372 -90.4989 303° West 272 313 8,000 4,050 Climbing FAA TRACON SMA TRACON (SMA)
07:56PM 38.8503 -90.5244 303° West 277 319 9,400 4,098 Climbing FAA TRACON SMA TRACON (SMA)
07:56PM 38.8661 -90.5556 303° West 272 313 10,800 2,488 Climbing FAA TRACON SMA TRACON (SMA)
07:56PM 38.8792 -90.5828 302° West 285 328 11,100 2,550 Climbing FAA TRACON SMA TRACON (SMA)
07:57PM 38.8972 -90.6186 303° West 308 354 12,500 3,846 Climbing FAA TRACON SMA TRACON (SMA)
07:57PM 38.9119 -90.6472 303° West 313 360 13,600 3,231 Climbing FAA TRACON SMA TRACON (SMA)
07:57PM 38.9272 -90.6761 304° West 316 364 14,600 3,366 Climbing FAA TRACON SMA TRACON (SMA)
07:58PM 38.9456 -90.7131 303° West 319 367 15,900 3,450 Climbing FAA TRACON SMA TRACON (SMA)
07:58PM 38.9603 -90.7433 302° West 323 372 16,900 2,000 Climbing FAA TRACON SMA TRACON (SMA)
07:58PM 38.9764 -90.7742 304° West 333 383 17,200 1,650 Climbing FAA TRACON SMA TRACON (SMA)
07:59PM 38.9922 -90.8069 302° West 347 399 18,000 2,488 Climbing FAA TRACON SMA TRACON (SMA)
07:59PM 39.0142 -90.8481 304° West 363 418 18,900 2,550 Climbing FAA TRACON SMA TRACON (SMA)
07:59PM 39.0317 -90.8825 303° West 370 426 19,700 2,462 Climbing FAA TRACON SMA TRACON (SMA)
08:00PM 39.0492 -90.9175 303° West 378 435 20,500 2,850 Climbing FAA TRACON SMA TRACON (SMA)
08:00PM 39.0722 -90.9617 304° West 384 442 21,600 3,150 Climbing FAA TRACON SMA TRACON (SMA)
08:00PM 39.0900 -90.9972 303° West 386 444 22,600 3,150 Climbing FAA TRACON SMA TRACON (SMA)
08:01PM 39.1211 -91.0347 317° Northwest 395 455 23,700 2,850 Climbing FAA TRACON SMA TRACON (SMA)
08:01PM 39.1478 -91.0631 321° Northwest 401 461 24,500 2,400 Climbing FAA TRACON SMA TRACON (SMA)
08:01PM 39.1753 -91.0900 323° Northwest 405 466 25,300 2,400 Climbing FAA TRACON SMA TRACON (SMA)
08:02PM 39.2089 -91.1258 320° Northwest 407 468 26,100 2,250 Climbing FAA TRACON SMA TRACON (SMA)
08:02PM 39.2353 -91.1547 320° Northwest 408 470 26,800 2,100 Climbing FAA TRACON SMA TRACON (SMA)
08:02PM 39.2572 -91.1886 310° West 402 463 27,500 1,950 Climbing FAA TRACON SMA TRACON (SMA)
08:03PM 39.2781 -91.2228 308° West 395 455 28,100 2,195 Climbing FAA TRACON SMA TRACON (SMA)
08:03PM 39.3025 -91.2669 306° West 394 453 29,000 2,400 Climbing FAA TRACON SMA TRACON (SMA)
08:03PM 39.3208 -91.3033 303° West 393 452 29,700 2,000 Climbing FAA TRACON SMA TRACON (SMA)
08:04PM 39.3389 -91.3397 303° West 391 450 30,300 1,500 Climbing FAA TRACON SMA TRACON (SMA)
08:04PM 39.3478 -91.3583 302° West 392 451 30,700 1,714 Climbing FAA TRACON SMA TRACON (SMA)
08:04PM 39.3617 -91.4489 281° West 392 451 31,300 2,368 Climbing Kansas City Center
08:05PM 39.4331 -91.5878 304° West 389 448 33,700 1,306 Climbing Kansas City Center
08:06PM 39.4850 -91.6908 303° West 382 440 34,000 145 Climbing Kansas City Center
08:07PM 39.5414 -91.8039 303° West 377 434 34,000  Level Kansas City Center
08:08PM 39.5983 -91.9161 303° West 375 432 34,000  Level Kansas City Center
08:09PM 39.6656 -92.0492 303° West 371 427 34,000  Level Kansas City Center
08:10PM 39.7206 -92.1625 302° West 372 428 34,000  Level Kansas City Center
08:11PM 39.7761 -92.2736 303° West 369 425 34,000  Level Kansas City Center
08:12PM 39.8314 -92.3833 303° West 366 421 34,000  Level Kansas City Center
08:13PM 39.8861 -92.4947 303° West 365 420 34,000  Level Kansas City Center
08:14PM 39.9414 -92.6047 303° West 364 419 34,000  Level Kansas City Center
08:15PM 39.9964 -92.7164 303° West 364 419 34,000  Level Kansas City Center
08:16PM 40.0506 -92.8297 302° West 366 421 34,000  Level Kansas City Center
08:17PM 40.1175 -92.9669 303° West 367 422 34,000  Level Kansas City Center
08:19PM 40.1697 -93.0753 302° West 361 415 34,000  Level Kansas City Center
08:20PM 40.2242 -93.1883 302° West 364 419 34,000  Level Kansas City Center
08:21PM 40.2769 -93.2983 302° West 361 415 34,000  Level Kansas City Center
08:22PM 40.3308 -93.4100 302° West 362 417 34,000  Level Kansas City Center
08:23PM 40.3833 -93.5211 302° West 362 417 34,000  Level Kansas City Center
08:24PM 40.4367 -93.6325 302° West 362 417 34,000  Level Kansas City Center
08:24PM 40.4572 -93.6775 301° West 362 417 34,000  Level Minneapolis Center
08:25PM 40.5094 -93.7875 302° West 359 413 34,000  Level Minneapolis Center
08:26PM 40.5617 -93.8983 302° West 359 413 34,000  Level Minneapolis Center
08:27PM 40.6061 -94.0106 298° West 353 406 34,000 -339 Level Minneapolis Center
08:28PM 40.6222 -94.1297 280° West 337 388 33,300 -1,403 Descending Minneapolis Center
08:29PM 40.6439 -94.2756 281° West 339 390 31,100 -2,129 Descending Minneapolis Center
08:30PM 40.6642 -94.3925 283° West 334 384 28,900 -2,177 Descending Minneapolis Center
08:31PM 40.6847 -94.5133 283° West 337 388 26,600 -2,226 Descending Minneapolis Center
08:32PM 40.7053 -94.6419 282° West 338 389 24,300 -2,177 Descending Minneapolis Center
08:33PM 40.7242 -94.7575 282° West 328 377 22,100 -2,213 Descending Minneapolis Center
08:34PM 40.7600 -94.8714 293° West 309 356 19,800 -2,176 Descending Minneapolis Center
08:35PM 40.7703 -94.9500 280° West 304 350 18,400 -1,688 Descending Minneapolis Center
08:35PM 40.7603 -94.9778 245° Southwest 307 353 18,000 -1,967 Descending Minneapolis Center
08:36PM 40.7867 -95.0581 293° West 303 349 16,400 -1,574 Descending Minneapolis Center
08:36PM 40.7736 -95.0656 204° Southwest 306 352 16,400 -2,800 Level Minneapolis Center
08:37PM 40.8336 -95.1567 311° West 337 388 13,600 -3,714 Descending Minneapolis Center
08:37PM 40.8486 -95.2022 294° West 333 383 12,500 -2,754 Descending Minneapolis Center
08:38PM 40.8933 -95.2569 317° Northwest 346 398 10,800 -1,935 Descending Minneapolis Center
08:38PM 40.9075 -95.3003 293° West 339 390 10,500 -689 Descending Minneapolis Center
08:39PM 40.9458 -95.3497 316° Northwest 312 359 10,100 -774 Descending Minneapolis Center
08:39PM 40.9597 -95.3867 296° West 320 368 9,700 -1,300 Descending Minneapolis Center
08:40PM 40.9958 -95.4347 315° West 260 299 8,800 -1,355 Descending Minneapolis Center
08:40PM 41.0039 -95.4614 292° West 284 327 8,300 -1,574 Descending Minneapolis Center
08:41PM 41.0350 -95.5156 307° West 255 293 7,200 -1,161 Descending Minneapolis Center
08:41PM 41.0372 -95.5242 289° West 271 312 7,100 -400 Descending Minneapolis Center
08:42PM 41.0656 -95.5947 298° West 236 272 6,800 -581 Descending Minneapolis Center
08:43PM 41.0708 -95.6194 286° West 251 289 6,500 -885 Descending Minneapolis Center
08:43PM 41.0914 -95.6664 300° West 213 245 5,900 -1,161 Descending Minneapolis Center
08:44PM 41.1011 -95.7039 289° West 227 261 5,300 -1,082 Descending Minneapolis Center
08:44PM 41.1211 -95.7322 313° West 209 241 4,800 -968 Descending Minneapolis Center
08:45PM 41.1442 -95.7550 323° Northwest 217 250 4,300 -700 Descending Minneapolis Center
08:45PM 41.1658 -95.7739 327° Northwest 199 229 4,100 -581 Descending Minneapolis Center
08:46PM 41.1897 -95.7900 333° Northwest 204 235 3,700 -885 Descending Minneapolis Center
08:46PM 41.2078 -95.8078 323° Northwest 165 190 3,200 -1,065 Descending Minneapolis Center
08:47PM 41.2286 -95.8244 329° Northwest 187 215 2,600 -984 Descending Minneapolis Center
08:47PM 41.2436 -95.8422 318° Northwest 135 155 2,200 -677 Descending Minneapolis Center
08:48PM 41.2575 -95.8531 330° Northwest 158 182 1,900 -700 Descending Minneapolis Center
08:48PM 41.2706 -95.8697 316° Northwest 116 133 1,500 -677 Descending Minneapolis Center
08:49PM 41.2842 -95.8783 335° Northwest 136 157 1,200 -450 Descending Minneapolis Center
08:51PM 41.3000 -95.8833 323° Northwest  Level FlightAware Approximate